createdAt,value
2022-08-26T00:02:12.600Z,17.73
2022-08-26T00:04:41.109Z,17.66
2022-08-26T00:07:09.153Z,17.58
2022-08-26T00:09:40.248Z,17.57
2022-08-26T00:12:09.492Z,17.54
2022-08-26T00:14:40.573Z,17.52
2022-08-26T00:17:08.861Z,17.43
2022-08-26T00:19:37.391Z,17.37
2022-08-26T00:22:05.900Z,17.34
2022-08-26T00:24:33.822Z,17.27
2022-08-26T00:27:01.740Z,17.23
2022-08-26T00:29:32.003Z,17.25
2022-08-26T00:32:04.111Z,17.21
2022-08-26T00:34:32.075Z,17.18
2022-08-26T00:36:59.731Z,17.13
2022-08-26T00:39:28.023Z,17.10
2022-08-26T00:41:55.933Z,17.06
2022-08-26T00:44:23.951Z,17.06
2022-08-26T00:46:56.711Z,17.04
2022-08-26T00:49:36.002Z,16.98
2022-08-26T00:52:09.885Z,16.95
2022-08-26T00:54:46.937Z,16.92
2022-08-26T00:57:18.535Z,16.88
2022-08-26T00:59:51.397Z,16.86
2022-08-26T01:02:20.019Z,16.86
2022-08-26T01:04:56.342Z,16.81
2022-08-26T01:07:27.441Z,16.79
2022-08-26T01:09:56.389Z,16.75
2022-08-26T01:12:27.734Z,16.72
2022-08-26T01:14:56.163Z,16.71
2022-08-26T01:17:23.975Z,16.66
2022-08-26T01:19:58.617Z,16.62
2022-08-26T01:22:38.489Z,16.61
2022-08-26T01:25:06.876Z,16.57
2022-08-26T01:27:35.411Z,16.60
2022-08-26T01:30:04.789Z,16.55
2022-08-26T01:32:33.961Z,16.55
2022-08-26T01:35:02.217Z,16.58
2022-08-26T01:37:34.860Z,16.52
2022-08-26T01:40:06.046Z,16.49
2022-08-26T01:42:34.925Z,16.48
2022-08-26T01:45:18.362Z,16.45
2022-08-26T01:47:57.037Z,16.41
2022-08-26T01:50:36.253Z,16.38
2022-08-26T01:53:09.521Z,16.33
2022-08-26T01:55:43.022Z,16.34
2022-08-26T01:58:26.562Z,16.30
2022-08-26T02:00:55.089Z,16.33
2022-08-26T02:03:24.335Z,16.26
2022-08-26T02:06:05.141Z,16.21
2022-08-26T02:08:47.635Z,16.21
2022-08-26T02:11:15.862Z,16.23
2022-08-26T02:13:51.862Z,16.24
2022-08-26T02:16:26.959Z,16.20
2022-08-26T02:18:56.104Z,16.25
2022-08-26T02:21:24.990Z,16.27
2022-08-26T02:23:52.945Z,16.22
2022-08-26T02:26:26.914Z,16.19
2022-08-26T02:29:09.777Z,16.16
2022-08-26T02:31:37.755Z,16.19
2022-08-26T02:34:15.674Z,16.17
2022-08-26T02:36:44.326Z,16.12
2022-08-26T02:39:13.647Z,16.11
2022-08-26T02:41:45.496Z,16.12
2022-08-26T02:44:13.697Z,16.14
2022-08-26T02:46:41.565Z,16.09
2022-08-26T02:49:16.287Z,16.05
2022-08-26T02:51:45.717Z,16.07
2022-08-26T02:54:13.952Z,16.02
2022-08-26T02:56:42.252Z,16.01
2022-08-26T02:59:12.656Z,16.01
2022-08-26T03:01:40.933Z,15.95
2022-08-26T03:04:12.248Z,15.97
2022-08-26T03:06:40.694Z,15.96
2022-08-26T03:09:10.103Z,15.95
2022-08-26T03:11:47.256Z,16.01
2022-08-26T03:14:15.196Z,15.98
2022-08-26T03:16:43.655Z,15.95
2022-08-26T03:19:17.663Z,15.89
2022-08-26T03:21:47.457Z,15.90
2022-08-26T03:24:15.774Z,15.95
2022-08-26T03:26:52.400Z,15.94
2022-08-26T03:29:40.564Z,15.95
2022-08-26T03:32:09.656Z,16.04
2022-08-26T03:34:38.749Z,16.03
2022-08-26T03:37:06.696Z,16.10
2022-08-26T03:39:35.081Z,16.17
2022-08-26T03:42:02.755Z,16.16
2022-08-26T03:44:30.494Z,16.23
2022-08-26T03:46:58.571Z,16.22
2022-08-26T03:49:26.464Z,16.21
2022-08-26T03:51:56.822Z,16.21
2022-08-26T03:54:24.762Z,16.27
2022-08-26T03:56:52.461Z,16.25
2022-08-26T03:59:20.975Z,16.23
2022-08-26T04:01:49.040Z,16.23
2022-08-26T04:04:17.022Z,16.23
2022-08-26T04:06:45.284Z,16.31
2022-08-26T04:09:18.037Z,16.38
2022-08-26T04:11:47.501Z,16.43
2022-08-26T04:14:21.705Z,16.46
2022-08-26T04:16:50.342Z,16.50
2022-08-26T04:19:20.017Z,16.58
2022-08-26T04:21:51.098Z,16.60
2022-08-26T04:24:20.051Z,16.67
2022-08-26T04:26:49.033Z,16.74
2022-08-26T04:29:20.139Z,16.84
2022-08-26T04:31:48.335Z,17.08
2022-08-26T04:34:17.535Z,17.20
2022-08-26T04:36:45.496Z,17.55
2022-08-26T04:39:16.743Z,17.65
2022-08-26T04:41:47.826Z,17.69
2022-08-26T04:44:16.708Z,17.91
2022-08-26T04:46:45.351Z,18.07
2022-08-26T04:49:14.078Z,18.22
2022-08-26T04:51:41.670Z,18.32
2022-08-26T04:54:14.078Z,18.41
2022-08-26T04:56:47.277Z,18.48
2022-08-26T04:59:18.241Z,18.62
2022-08-26T05:01:48.871Z,18.71
2022-08-26T05:04:19.894Z,18.80
2022-08-26T05:06:50.090Z,18.92
2022-08-26T05:09:18.635Z,19.05
2022-08-26T05:11:48.504Z,19.18
2022-08-26T05:14:23.293Z,19.35
2022-08-26T05:16:52.089Z,19.49
2022-08-26T05:19:19.796Z,19.52
2022-08-26T05:21:49.569Z,19.67
2022-08-26T05:24:18.231Z,19.93
2022-08-26T05:26:47.198Z,19.92
2022-08-26T05:29:16.771Z,20.10
2022-08-26T05:31:44.843Z,20.10
2022-08-26T05:34:12.893Z,20.13
2022-08-26T05:36:41.235Z,20.28
2022-08-26T05:39:10.357Z,20.37
2022-08-26T05:41:41.027Z,20.49
2022-08-26T05:44:12.969Z,20.64
2022-08-26T05:46:43.988Z,20.74
2022-08-26T05:49:15.891Z,20.87
2022-08-26T05:51:47.507Z,20.92
2022-08-26T05:54:21.949Z,21.08
2022-08-26T05:56:51.628Z,21.28
2022-08-26T05:59:24.275Z,21.46
2022-08-26T06:01:53.423Z,21.55
2022-08-26T06:04:24.842Z,21.72
2022-08-26T06:06:55.085Z,21.87
2022-08-26T06:09:23.086Z,21.95
2022-08-26T06:11:51.503Z,22.22
2022-08-26T06:14:19.414Z,22.16
2022-08-26T06:16:47.881Z,22.22
2022-08-26T06:19:15.702Z,22.38
2022-08-26T06:21:47.545Z,22.50
2022-08-26T06:24:41.198Z,22.67
2022-08-26T06:27:13.462Z,22.66
2022-08-26T06:29:41.873Z,22.72
2022-08-26T06:32:09.726Z,22.93
2022-08-26T06:34:37.567Z,22.99
2022-08-26T06:37:06.513Z,23.08
2022-08-26T06:39:34.613Z,23.00
2022-08-26T06:42:03.378Z,23.12
2022-08-26T06:44:35.057Z,23.26
2022-08-26T06:47:02.678Z,23.49
2022-08-26T06:49:30.454Z,23.58
2022-08-26T06:51:58.911Z,23.64
2022-08-26T06:54:29.872Z,23.74
2022-08-26T06:56:58.016Z,23.71
2022-08-26T06:59:26.361Z,23.83
2022-08-26T07:01:54.772Z,23.94
2022-08-26T07:04:24.497Z,24.12
2022-08-26T07:06:53.853Z,24.35
2022-08-26T07:09:24.559Z,24.45
2022-08-26T07:11:53.262Z,24.62
2022-08-26T07:14:22.041Z,24.65
2022-08-26T07:16:50.965Z,24.60
2022-08-26T07:19:29.825Z,24.72
2022-08-26T07:22:00.106Z,25.04
2022-08-26T07:24:29.012Z,25.10
2022-08-26T07:27:05.622Z,25.35
2022-08-26T07:29:34.643Z,25.52
2022-08-26T07:32:03.369Z,25.83
2022-08-26T07:34:34.134Z,25.89
2022-08-26T07:37:02.478Z,26.11
2022-08-26T07:39:31.497Z,26.55
2022-08-26T07:42:01.783Z,27.18
2022-08-26T07:44:37.031Z,29.52
2022-08-26T07:47:10.415Z,32.06
2022-08-26T07:49:57.339Z,34.73
2022-08-26T07:52:28.367Z,36.20
2022-08-26T07:54:58.664Z,37.99
2022-08-26T07:57:28.232Z,38.85
2022-08-26T07:59:56.846Z,39.82
2022-08-26T08:02:25.528Z,40.22
2022-08-26T08:04:54.679Z,41.28
2022-08-26T08:07:25.770Z,42.08
2022-08-26T08:10:11.323Z,42.83
2022-08-26T08:12:40.331Z,43.22
2022-08-26T08:15:10.029Z,43.05
2022-08-26T08:17:37.651Z,43.01
2022-08-26T08:20:07.583Z,43.64
2022-08-26T08:22:35.926Z,44.03
2022-08-26T08:25:06.345Z,43.66
2022-08-26T08:27:38.499Z,44.07
2022-08-26T08:30:08.596Z,43.44
2022-08-26T08:32:40.374Z,45.04
2022-08-26T08:35:10.961Z,44.93
2022-08-26T08:37:40.373Z,44.39
2022-08-26T08:40:10.120Z,44.75
2022-08-26T08:42:44.329Z,45.21
2022-08-26T08:45:24.177Z,45.11
2022-08-26T08:47:56.817Z,45.10
2022-08-26T08:50:30.784Z,45.10
2022-08-26T08:53:15.141Z,45.83
2022-08-26T08:56:39.148Z,45.77
2022-08-26T08:59:17.119Z,45.79
2022-08-26T09:02:08.530Z,45.89
2022-08-26T09:04:38.278Z,46.35
2022-08-26T09:07:10.505Z,45.86
2022-08-26T09:09:42.044Z,44.92
2022-08-26T09:12:17.023Z,45.66
2022-08-26T09:14:47.950Z,45.87
2022-08-26T09:17:31.733Z,45.37
2022-08-26T09:20:26.316Z,45.34
2022-08-26T09:22:56.391Z,44.90
2022-08-26T09:25:24.173Z,44.93
2022-08-26T09:27:54.301Z,45.02
2022-08-26T09:30:33.199Z,45.47
2022-08-26T09:33:15.729Z,45.46
2022-08-26T09:35:48.803Z,45.72
2022-08-26T09:38:26.739Z,45.45
2022-08-26T09:41:08.320Z,45.29
2022-08-26T09:43:36.999Z,45.19
2022-08-26T09:46:18.652Z,44.71
2022-08-26T09:48:46.588Z,44.35
2022-08-26T09:51:26.462Z,44.05
2022-08-26T09:54:03.084Z,43.40
2022-08-26T09:56:36.961Z,43.54
2022-08-26T09:59:11.160Z,43.28
2022-08-26T10:01:44.890Z,43.50
2022-08-26T10:04:20.713Z,43.22
2022-08-26T10:07:04.173Z,42.81
2022-08-26T10:09:43.379Z,43.07
2022-08-26T10:12:17.422Z,42.86
2022-08-26T10:14:52.005Z,42.78
2022-08-26T10:17:39.263Z,42.39
2022-08-26T10:20:36.172Z,41.62
2022-08-26T10:23:04.458Z,39.16
2022-08-26T10:25:40.800Z,38.13
2022-08-26T10:28:20.538Z,37.04
2022-08-26T10:30:56.958Z,36.34
2022-08-26T10:33:25.646Z,35.66
2022-08-26T10:35:58.432Z,35.28
2022-08-26T10:38:34.274Z,35.05
2022-08-26T10:41:24.148Z,34.99
2022-08-26T10:44:03.499Z,34.47
2022-08-26T10:46:52.648Z,34.39
2022-08-26T10:49:20.556Z,34.53
2022-08-26T10:52:15.155Z,34.58
2022-08-26T10:54:50.453Z,34.60
2022-08-26T10:57:49.176Z,34.49
2022-08-26T11:00:41.168Z,34.15
2022-08-26T11:03:34.528Z,33.82
2022-08-26T11:06:25.280Z,33.68
2022-08-26T11:08:56.816Z,33.72
2022-08-26T11:11:46.789Z,33.69
2022-08-26T11:14:29.309Z,33.75
2022-08-26T11:16:59.786Z,33.71
2022-08-26T11:19:59.722Z,33.73
2022-08-26T11:22:30.139Z,33.64
2022-08-26T11:24:57.774Z,33.73
2022-08-26T11:27:38.460Z,33.47
2022-08-26T11:30:33.994Z,33.39
2022-08-26T11:33:02.179Z,33.25
2022-08-26T11:35:50.623Z,33.08
2022-08-26T11:38:28.546Z,32.90
2022-08-26T11:41:04.907Z,32.88
2022-08-26T11:43:33.707Z,32.74
2022-08-26T11:46:05.643Z,32.72
2022-08-26T11:48:40.923Z,32.90
2022-08-26T11:51:10.238Z,33.06
2022-08-26T11:53:44.681Z,32.92
2022-08-26T11:56:28.831Z,33.05
2022-08-26T11:59:04.194Z,33.04
2022-08-26T12:01:38.200Z,33.10
2022-08-26T12:04:10.682Z,33.08
2022-08-26T12:06:51.085Z,33.10
2022-08-26T12:09:32.110Z,33.03
2022-08-26T12:12:18.730Z,33.05
2022-08-26T12:14:46.953Z,32.90
2022-08-26T12:17:27.186Z,33.02
2022-08-26T12:19:54.955Z,33.04
2022-08-26T12:22:28.224Z,33.05
2022-08-26T12:25:06.089Z,33.27
2022-08-26T12:27:43.237Z,33.34
2022-08-26T12:30:14.010Z,33.54
2022-08-26T12:32:58.071Z,33.42
2022-08-26T12:35:28.950Z,33.31
2022-08-26T12:37:57.920Z,33.46
2022-08-26T12:40:31.924Z,33.16
2022-08-26T12:43:02.079Z,33.05
2022-08-26T12:45:29.859Z,33.03
2022-08-26T12:48:01.463Z,32.93
2022-08-26T12:50:33.777Z,33.06
2022-08-26T12:53:05.668Z,33.16
2022-08-26T12:55:33.604Z,33.28
2022-08-26T12:58:38.311Z,33.40
2022-08-26T13:01:09.333Z,33.58
2022-08-26T13:03:37.709Z,33.72
2022-08-26T13:06:29.999Z,33.42
2022-08-26T13:09:22.772Z,33.15
2022-08-26T13:11:52.997Z,33.03
2022-08-26T13:14:24.416Z,32.95
2022-08-26T13:16:53.564Z,32.81
2022-08-26T13:19:25.750Z,32.63
2022-08-26T13:21:59.099Z,32.41
2022-08-26T13:24:32.879Z,32.35
2022-08-26T13:27:01.938Z,32.24
2022-08-26T13:29:29.989Z,32.20
2022-08-26T13:31:59.478Z,32.16
2022-08-26T13:34:28.295Z,32.37
2022-08-26T13:36:56.706Z,32.43
2022-08-26T13:39:25.602Z,32.46
2022-08-26T13:41:53.909Z,32.48
2022-08-26T13:44:21.872Z,32.49
2022-08-26T13:46:49.841Z,32.54
2022-08-26T13:49:17.887Z,32.62
2022-08-26T13:51:45.900Z,32.72
2022-08-26T13:54:13.654Z,32.84
2022-08-26T13:56:41.792Z,32.84
2022-08-26T13:59:10.010Z,33.04
2022-08-26T14:01:39.905Z,33.01
2022-08-26T14:04:08.721Z,32.90
2022-08-26T14:06:37.464Z,32.84
2022-08-26T14:09:05.441Z,32.81
2022-08-26T14:11:37.016Z,32.72
2022-08-26T14:14:18.571Z,32.66
2022-08-26T14:16:59.495Z,32.59
2022-08-26T14:19:30.183Z,32.53
2022-08-26T14:22:00.817Z,32.46
2022-08-26T14:24:29.197Z,32.33
2022-08-26T14:26:57.025Z,32.34
2022-08-26T14:29:25.042Z,32.42
2022-08-26T14:31:54.605Z,32.36
2022-08-26T14:34:22.378Z,32.31
2022-08-26T14:36:50.259Z,32.25
2022-08-26T14:39:18.142Z,32.06
2022-08-26T14:41:54.093Z,32.11
2022-08-26T14:44:30.606Z,31.97
2022-08-26T14:47:02.101Z,31.87
2022-08-26T14:49:31.593Z,31.91
2022-08-26T14:51:59.853Z,31.82
2022-08-26T14:54:29.470Z,31.74
2022-08-26T14:57:17.932Z,31.63
2022-08-26T14:59:49.901Z,31.54
2022-08-26T15:02:22.251Z,31.51
2022-08-26T15:05:02.543Z,31.50
2022-08-26T15:07:31.000Z,31.36
2022-08-26T15:09:59.035Z,31.41
2022-08-26T15:12:27.808Z,31.34
2022-08-26T15:14:55.699Z,31.32
2022-08-26T15:17:23.632Z,31.29
2022-08-26T15:19:52.069Z,31.19
2022-08-26T15:22:20.080Z,31.19
2022-08-26T15:24:47.949Z,31.14
2022-08-26T15:27:21.466Z,31.15
2022-08-26T15:29:49.474Z,30.97
2022-08-26T15:32:17.421Z,30.95
2022-08-26T15:34:45.783Z,30.91
2022-08-26T15:37:13.727Z,30.86
2022-08-26T15:39:41.611Z,30.76
2022-08-26T15:42:11.104Z,30.74
2022-08-26T15:44:44.172Z,30.65
2022-08-26T15:47:12.898Z,30.54
2022-08-26T15:49:41.113Z,30.51
2022-08-26T15:52:09.434Z,30.43
2022-08-26T15:54:37.493Z,30.37
2022-08-26T15:57:08.175Z,30.27
2022-08-26T15:59:37.336Z,30.13
2022-08-26T16:02:05.848Z,30.21
2022-08-26T16:04:33.635Z,30.07
2022-08-26T16:07:01.407Z,29.94
2022-08-26T16:09:30.766Z,29.91
2022-08-26T16:12:01.920Z,29.75
2022-08-26T16:14:30.255Z,29.68
2022-08-26T16:16:58.053Z,29.52
2022-08-26T16:19:25.832Z,29.40
2022-08-26T16:21:53.959Z,29.19
2022-08-26T16:24:24.778Z,29.07
2022-08-26T16:26:55.701Z,28.91
2022-08-26T16:29:24.626Z,28.78
2022-08-26T16:31:54.673Z,28.64
2022-08-26T16:34:22.984Z,28.54
2022-08-26T16:36:51.706Z,28.48
2022-08-26T16:39:19.785Z,28.36
2022-08-26T16:41:47.685Z,28.28
2022-08-26T16:44:15.472Z,28.25
2022-08-26T16:46:43.402Z,28.06
2022-08-26T16:49:11.372Z,28.05
2022-08-26T16:51:39.187Z,27.90
2022-08-26T16:54:08.757Z,27.86
2022-08-26T16:56:37.888Z,27.69
2022-08-26T16:59:08.052Z,27.63
2022-08-26T17:01:35.888Z,27.59
2022-08-26T17:04:04.122Z,27.53
2022-08-26T17:06:31.828Z,27.46
2022-08-26T17:08:59.951Z,27.38
2022-08-26T17:11:27.733Z,27.29
2022-08-26T17:13:55.506Z,27.17
2022-08-26T17:16:26.923Z,26.96
2022-08-26T17:18:57.371Z,26.87
2022-08-26T17:21:26.285Z,26.79
2022-08-26T17:23:54.520Z,26.70
2022-08-26T17:26:22.321Z,26.53
2022-08-26T17:28:51.129Z,26.41
2022-08-26T17:31:20.418Z,26.23
2022-08-26T17:33:53.810Z,25.97
2022-08-26T17:36:27.885Z,25.69
2022-08-26T17:38:57.644Z,25.41
2022-08-26T17:41:26.478Z,25.22
2022-08-26T17:43:54.645Z,25.02
2022-08-26T17:46:23.020Z,24.84
2022-08-26T17:48:50.966Z,24.64
2022-08-26T17:51:19.787Z,24.47
2022-08-26T17:53:48.787Z,24.29
2022-08-26T17:56:19.448Z,24.16
2022-08-26T17:58:48.152Z,24.13
2022-08-26T18:01:21.301Z,24.01
2022-08-26T18:03:49.506Z,23.84
2022-08-26T18:06:17.250Z,23.72
2022-08-26T18:08:45.356Z,23.65
2022-08-26T18:11:18.077Z,23.47
2022-08-26T18:13:47.649Z,23.35
2022-08-26T18:16:17.683Z,23.21
2022-08-26T18:18:46.732Z,23.06
2022-08-26T18:21:17.876Z,22.91
2022-08-26T18:23:46.996Z,22.86
2022-08-26T18:26:31.468Z,22.81
2022-08-26T18:29:00.030Z,22.71
2022-08-26T18:31:28.420Z,22.57
2022-08-26T18:33:56.520Z,22.52
2022-08-26T18:36:27.740Z,22.50
2022-08-26T18:38:57.110Z,22.33
2022-08-26T18:41:27.733Z,22.27
2022-08-26T18:43:56.510Z,22.30
2022-08-26T18:46:26.944Z,22.19
2022-08-26T18:48:56.447Z,22.18
2022-08-26T18:51:28.139Z,22.18
2022-08-26T18:53:56.890Z,22.05
2022-08-26T18:56:24.967Z,21.85
2022-08-26T18:58:52.752Z,21.71
2022-08-26T19:01:25.502Z,21.62
2022-08-26T19:03:56.334Z,21.58
2022-08-26T19:06:25.778Z,21.50
2022-08-26T19:08:53.809Z,21.38
2022-08-26T19:11:32.637Z,21.32
2022-08-26T19:14:13.644Z,21.30
2022-08-26T19:16:44.560Z,21.11
2022-08-26T19:19:13.452Z,21.11
2022-08-26T19:21:41.577Z,21.07
2022-08-26T19:24:15.377Z,20.95
2022-08-26T19:26:44.208Z,20.87
2022-08-26T19:29:12.531Z,20.83
2022-08-26T19:31:41.416Z,20.91
2022-08-26T19:34:12.554Z,20.80
2022-08-26T19:36:41.047Z,20.70
2022-08-26T19:39:13.048Z,20.64
2022-08-26T19:41:40.845Z,20.67
2022-08-26T19:44:13.044Z,20.65
2022-08-26T19:46:41.658Z,20.53
2022-08-26T19:49:09.502Z,20.59
2022-08-26T19:51:37.408Z,20.60
2022-08-26T19:54:05.794Z,20.55
2022-08-26T19:56:34.407Z,20.54
2022-08-26T19:59:02.088Z,20.46
2022-08-26T20:01:30.743Z,20.40
2022-08-26T20:03:58.544Z,20.33
2022-08-26T20:06:26.280Z,20.38
2022-08-26T20:08:56.257Z,20.23
2022-08-26T20:11:24.471Z,20.19
2022-08-26T20:13:52.264Z,20.09
2022-08-26T20:16:20.247Z,20.01
2022-08-26T20:19:06.781Z,20.09
2022-08-26T20:21:38.234Z,20.04
2022-08-26T20:24:13.275Z,20.05
2022-08-26T20:26:44.534Z,19.99
2022-08-26T20:29:18.739Z,20.19
2022-08-26T20:31:48.347Z,20.13
2022-08-26T20:34:18.636Z,20.04
2022-08-26T20:36:48.133Z,19.97
2022-08-26T20:39:18.325Z,19.93
2022-08-26T20:41:46.349Z,19.91
2022-08-26T20:44:14.244Z,19.80
2022-08-26T20:46:42.267Z,19.69
2022-08-26T20:49:10.402Z,19.63
2022-08-26T20:51:38.584Z,19.56
2022-08-26T20:54:07.674Z,19.47
2022-08-26T20:56:36.319Z,19.41
2022-08-26T20:59:06.119Z,19.44
2022-08-26T21:01:36.015Z,19.39
2022-08-26T21:04:06.800Z,19.37
2022-08-26T21:06:35.364Z,19.42
2022-08-26T21:09:05.400Z,19.41
2022-08-26T21:11:34.045Z,19.41
2022-08-26T21:14:06.654Z,19.44
2022-08-26T21:16:44.747Z,19.41
2022-08-26T21:19:15.493Z,19.46
2022-08-26T21:21:44.561Z,19.47
2022-08-26T21:24:13.140Z,19.47
2022-08-26T21:26:41.271Z,19.45
2022-08-26T21:29:10.024Z,19.47
2022-08-26T21:31:44.909Z,19.52
2022-08-26T21:34:16.903Z,19.53
2022-08-26T21:36:48.180Z,19.54
2022-08-26T21:39:16.640Z,19.62
2022-08-26T21:41:45.479Z,19.54
2022-08-26T21:44:14.524Z,19.50
2022-08-26T21:46:43.904Z,19.55
2022-08-26T21:49:13.838Z,19.56
2022-08-26T21:51:44.964Z,19.55
2022-08-26T21:54:13.878Z,19.51
2022-08-26T21:56:47.085Z,19.43
2022-08-26T21:59:19.290Z,19.40
2022-08-26T22:01:48.208Z,19.32
2022-08-26T22:04:17.179Z,19.27
2022-08-26T22:06:50.794Z,19.22
2022-08-26T22:09:24.145Z,19.18
2022-08-26T22:11:53.125Z,19.23
2022-08-26T22:14:22.429Z,19.20
2022-08-26T22:16:51.062Z,19.21
2022-08-26T22:19:20.600Z,19.15
2022-08-26T22:21:53.531Z,19.11
2022-08-26T22:24:23.847Z,19.14
2022-08-26T22:26:52.710Z,19.09
2022-08-26T22:29:20.720Z,19.09
2022-08-26T22:31:48.643Z,19.02
2022-08-26T22:34:17.524Z,18.97
2022-08-26T22:36:48.663Z,18.98
2022-08-26T22:39:20.131Z,18.93
2022-08-26T22:41:48.864Z,18.92
2022-08-26T22:44:18.188Z,18.85
2022-08-26T22:46:47.618Z,18.86
2022-08-26T22:49:16.544Z,18.84
2022-08-26T22:51:45.984Z,18.84
2022-08-26T22:54:15.428Z,18.80
2022-08-26T22:56:44.952Z,18.83
2022-08-26T22:59:13.057Z,18.82
2022-08-26T23:01:43.027Z,18.77
2022-08-26T23:04:11.669Z,18.85
2022-08-26T23:06:43.304Z,18.89
2022-08-26T23:09:18.542Z,18.89
2022-08-26T23:11:47.871Z,18.96
2022-08-26T23:14:17.201Z,19.03
2022-08-26T23:16:45.937Z,18.97
2022-08-26T23:19:15.512Z,18.92
2022-08-26T23:21:43.854Z,18.92
2022-08-26T23:24:12.188Z,19.06
2022-08-26T23:26:41.203Z,18.96
2022-08-26T23:29:11.281Z,18.94
2022-08-26T23:31:41.684Z,18.86
2022-08-26T23:34:29.421Z,18.82
2022-08-26T23:36:59.299Z,18.76
2022-08-26T23:39:29.307Z,18.69
2022-08-26T23:41:58.062Z,18.65
2022-08-26T23:44:26.640Z,18.78
2022-08-26T23:46:55.146Z,18.78
2022-08-26T23:49:23.374Z,18.79
2022-08-26T23:52:10.420Z,18.72
2022-08-26T23:54:39.832Z,18.75
2022-08-26T23:57:09.399Z,18.66
2022-08-26T23:59:38.442Z,18.74
